sensor_id;sensor_type;location;lat;lon;timestamp;P1;durP1;ratioP1;P2;durP2;ratioP2
54368;SDS011;40266;52.434;17.056;2023-10-09T00:00:14;26.20;;;10.40;;
54368;SDS011;40266;52.434;17.056;2023-10-09T00:03:37;23.60;;;9.70;;
54368;SDS011;40266;52.434;17.056;2023-10-09T00:06:22;25.50;;;9.60;;
54368;SDS011;40266;52.434;17.056;2023-10-09T00:09:20;23.50;;;10.40;;
54368;SDS011;40266;52.434;17.056;2023-10-09T00:12:06;24.50;;;8.90;;
54368;SDS011;40266;52.434;17.056;2023-10-09T00:14:53;18.80;;;7.50;;
54368;SDS011;40266;52.434;17.056;2023-10-09T00:17:50;15.40;;;6.50;;
54368;SDS011;40266;52.434;17.056;2023-10-09T00:20:40;17.80;;;6.20;;
54368;SDS011;40266;52.434;17.056;2023-10-09T00:23:25;16.50;;;6.50;;
54368;SDS011;40266;52.434;17.056;2023-10-09T00:26:08;16.70;;;6.50;;
54368;SDS011;40266;52.434;17.056;2023-10-09T00:28:53;19.70;;;7.10;;
54368;SDS011;40266;52.434;17.056;2023-10-09T00:31:36;17.80;;;6.90;;
54368;SDS011;40266;52.434;17.056;2023-10-09T00:34:20;17.80;;;6.80;;
54368;SDS011;40266;52.434;17.056;2023-10-09T00:37:05;19.40;;;7.40;;
54368;SDS011;40266;52.434;17.056;2023-10-09T00:39:54;14.90;;;6.20;;
54368;SDS011;40266;52.434;17.056;2023-10-09T00:42:39;15.40;;;5.70;;
54368;SDS011;40266;52.434;17.056;2023-10-09T00:45:22;15.20;;;5.70;;
54368;SDS011;40266;52.434;17.056;2023-10-09T00:48:15;13.40;;;5.60;;
54368;SDS011;40266;52.434;17.056;2023-10-09T00:51:05;12.20;;;5.60;;
54368;SDS011;40266;52.434;17.056;2023-10-09T00:53:58;14.60;;;6.40;;
54368;SDS011;40266;52.434;17.056;2023-10-09T00:56:49;15.50;;;6.40;;
54368;SDS011;40266;52.434;17.056;2023-10-09T00:59:40;16.10;;;6.80;;
54368;SDS011;40266;52.434;17.056;2023-10-09T01:02:26;18.40;;;7.50;;
54368;SDS011;40266;52.434;17.056;2023-10-09T01:05:25;18.30;;;8.00;;
54368;SDS011;40266;52.434;17.056;2023-10-09T01:08:09;16.10;;;7.40;;
54368;SDS011;40266;52.434;17.056;2023-10-09T01:13:53;14.10;;;6.90;;
54368;SDS011;40266;52.434;17.056;2023-10-09T01:16:38;17.50;;;6.90;;
54368;SDS011;40266;52.434;17.056;2023-10-09T01:19:26;14.80;;;6.70;;
54368;SDS011;40266;52.434;17.056;2023-10-09T01:22:13;15.50;;;6.20;;
54368;SDS011;40266;52.434;17.056;2023-10-09T01:24:57;18.60;;;8.10;;
54368;SDS011;40266;52.434;17.056;2023-10-09T01:27:40;17.00;;;7.20;;
54368;SDS011;40266;52.434;17.056;2023-10-09T01:30:23;15.80;;;7.40;;
54368;SDS011;40266;52.434;17.056;2023-10-09T01:33:06;16.40;;;6.30;;
54368;SDS011;40266;52.434;17.056;2023-10-09T01:35:55;15.70;;;7.20;;
54368;SDS011;40266;52.434;17.056;2023-10-09T01:38:41;18.50;;;7.90;;
54368;SDS011;40266;52.434;17.056;2023-10-09T01:41:26;19.80;;;8.60;;
54368;SDS011;40266;52.434;17.056;2023-10-09T01:44:09;17.60;;;7.50;;
54368;SDS011;40266;52.434;17.056;2023-10-09T01:46:53;18.30;;;7.70;;
54368;SDS011;40266;52.434;17.056;2023-10-09T01:49:41;19.10;;;7.90;;
54368;SDS011;40266;52.434;17.056;2023-10-09T01:52:26;18.00;;;7.60;;
54368;SDS011;40266;52.434;17.056;2023-10-09T01:55:10;16.70;;;7.00;;
54368;SDS011;40266;52.434;17.056;2023-10-09T01:58:16;21.60;;;8.50;;
54368;SDS011;40266;52.434;17.056;2023-10-09T02:01:05;18.40;;;8.00;;
54368;SDS011;40266;52.434;17.056;2023-10-09T02:03:49;22.60;;;9.30;;
54368;SDS011;40266;52.434;17.056;2023-10-09T02:06:34;18.10;;;7.80;;
54368;SDS011;40266;52.434;17.056;2023-10-09T02:09:20;18.50;;;8.10;;
54368;SDS011;40266;52.434;17.056;2023-10-09T02:12:10;15.30;;;7.80;;
54368;SDS011;40266;52.434;17.056;2023-10-09T02:14:53;16.80;;;7.30;;
54368;SDS011;40266;52.434;17.056;2023-10-09T02:17:38;17.70;;;8.10;;
54368;SDS011;40266;52.434;17.056;2023-10-09T02:20:34;17.80;;;8.40;;
54368;SDS011;40266;52.434;17.056;2023-10-09T02:23:20;16.60;;;7.40;;
54368;SDS011;40266;52.434;17.056;2023-10-09T02:26:07;20.80;;;8.00;;
54368;SDS011;40266;52.434;17.056;2023-10-09T02:28:52;18.50;;;8.30;;
54368;SDS011;40266;52.434;17.056;2023-10-09T02:31:52;15.30;;;7.40;;
54368;SDS011;40266;52.434;17.056;2023-10-09T02:34:35;17.50;;;7.40;;
54368;SDS011;40266;52.434;17.056;2023-10-09T02:37:20;18.40;;;8.00;;
54368;SDS011;40266;52.434;17.056;2023-10-09T02:40:08;15.90;;;7.60;;
54368;SDS011;40266;52.434;17.056;2023-10-09T02:42:51;16.30;;;7.60;;
54368;SDS011;40266;52.434;17.056;2023-10-09T02:45:34;16.70;;;7.80;;
54368;SDS011;40266;52.434;17.056;2023-10-09T02:48:24;16.90;;;7.40;;
54368;SDS011;40266;52.434;17.056;2023-10-09T02:51:10;16.60;;;7.50;;
54368;SDS011;40266;52.434;17.056;2023-10-09T02:54:03;17.20;;;7.60;;
54368;SDS011;40266;52.434;17.056;2023-10-09T02:57:09;15.00;;;7.00;;
54368;SDS011;40266;52.434;17.056;2023-10-09T02:59:58;15.30;;;7.00;;
54368;SDS011;40266;52.434;17.056;2023-10-09T03:02:42;18.90;;;7.20;;
54368;SDS011;40266;52.434;17.056;2023-10-09T03:05:25;17.30;;;7.20;;
54368;SDS011;40266;52.434;17.056;2023-10-09T03:08:11;14.80;;;6.70;;
54368;SDS011;40266;52.434;17.056;2023-10-09T03:11:00;15.40;;;7.20;;
54368;SDS011;40266;52.434;17.056;2023-10-09T03:13:43;13.00;;;6.30;;
54368;SDS011;40266;52.434;17.056;2023-10-09T03:16:28;15.80;;;6.80;;
54368;SDS011;40266;52.434;17.056;2023-10-09T03:19:11;14.20;;;6.70;;
54368;SDS011;40266;52.434;17.056;2023-10-09T03:21:55;17.70;;;6.40;;
54368;SDS011;40266;52.434;17.056;2023-10-09T03:24:41;15.90;;;6.50;;
54368;SDS011;40266;52.434;17.056;2023-10-09T03:27:24;17.00;;;6.20;;
54368;SDS011;40266;52.434;17.056;2023-10-09T03:30:08;14.60;;;6.20;;
54368;SDS011;40266;52.434;17.056;2023-10-09T03:32:53;14.30;;;7.80;;
54368;SDS011;40266;52.434;17.056;2023-10-09T03:35:37;21.70;;;7.20;;
54368;SDS011;40266;52.434;17.056;2023-10-09T03:38:22;16.40;;;6.40;;
54368;SDS011;40266;52.434;17.056;2023-10-09T03:41:05;14.00;;;7.00;;
54368;SDS011;40266;52.434;17.056;2023-10-09T03:43:49;13.40;;;6.50;;
54368;SDS011;40266;52.434;17.056;2023-10-09T03:46:33;17.50;;;7.20;;
54368;SDS011;40266;52.434;17.056;2023-10-09T03:49:19;16.80;;;7.70;;
54368;SDS011;40266;52.434;17.056;2023-10-09T03:52:06;16.00;;;7.00;;
54368;SDS011;40266;52.434;17.056;2023-10-09T03:54:49;18.20;;;8.30;;
54368;SDS011;40266;52.434;17.056;2023-10-09T03:57:32;18.60;;;8.30;;
54368;SDS011;40266;52.434;17.056;2023-10-09T04:00:15;16.50;;;7.70;;
54368;SDS011;40266;52.434;17.056;2023-10-09T04:03:04;19.40;;;9.30;;
54368;SDS011;40266;52.434;17.056;2023-10-09T04:05:48;16.70;;;8.10;;
54368;SDS011;40266;52.434;17.056;2023-10-09T04:08:34;14.90;;;7.40;;
54368;SDS011;40266;52.434;17.056;2023-10-09T04:11:19;16.50;;;8.00;;
54368;SDS011;40266;52.434;17.056;2023-10-09T04:14:05;19.50;;;9.20;;
54368;SDS011;40266;52.434;17.056;2023-10-09T04:16:54;17.80;;;8.00;;
54368;SDS011;40266;52.434;17.056;2023-10-09T04:20:10;16.10;;;8.00;;
54368;SDS011;40266;52.434;17.056;2023-10-09T04:23:02;20.90;;;8.40;;
54368;SDS011;40266;52.434;17.056;2023-10-09T04:25:49;20.10;;;8.90;;
54368;SDS011;40266;52.434;17.056;2023-10-09T04:28:33;20.20;;;9.10;;
54368;SDS011;40266;52.434;17.056;2023-10-09T04:31:19;18.20;;;7.70;;
54368;SDS011;40266;52.434;17.056;2023-10-09T04:34:04;16.60;;;8.70;;
54368;SDS011;40266;52.434;17.056;2023-10-09T04:37:10;16.10;;;8.30;;
54368;SDS011;40266;52.434;17.056;2023-10-09T04:39:56;21.20;;;8.90;;
54368;SDS011;40266;52.434;17.056;2023-10-09T04:42:54;18.70;;;9.00;;
54368;SDS011;40266;52.434;17.056;2023-10-09T04:45:48;16.50;;;8.90;;
54368;SDS011;40266;52.434;17.056;2023-10-09T04:48:52;22.20;;;8.90;;
54368;SDS011;40266;52.434;17.056;2023-10-09T04:51:35;18.30;;;8.10;;
54368;SDS011;40266;52.434;17.056;2023-10-09T04:54:19;17.00;;;8.80;;
54368;SDS011;40266;52.434;17.056;2023-10-09T04:57:22;19.10;;;9.30;;
54368;SDS011;40266;52.434;17.056;2023-10-09T05:00:11;16.80;;;7.60;;
54368;SDS011;40266;52.434;17.056;2023-10-09T05:03:08;18.40;;;9.40;;
54368;SDS011;40266;52.434;17.056;2023-10-09T05:05:56;17.40;;;8.10;;
54368;SDS011;40266;52.434;17.056;2023-10-09T05:08:42;19.30;;;8.60;;
54368;SDS011;40266;52.434;17.056;2023-10-09T05:11:28;18.00;;;8.10;;
54368;SDS011;40266;52.434;17.056;2023-10-09T05:14:19;16.70;;;11.30;;
54368;SDS011;40266;52.434;17.056;2023-10-09T05:17:21;19.10;;;8.80;;
54368;SDS011;40266;52.434;17.056;2023-10-09T05:20:08;17.80;;;8.50;;
54368;SDS011;40266;52.434;17.056;2023-10-09T05:23:09;16.70;;;8.70;;
54368;SDS011;40266;52.434;17.056;2023-10-09T05:26:08;16.30;;;8.90;;
54368;SDS011;40266;52.434;17.056;2023-10-09T05:29:12;16.90;;;8.30;;
54368;SDS011;40266;52.434;17.056;2023-10-09T05:32:11;18.80;;;8.40;;
54368;SDS011;40266;52.434;17.056;2023-10-09T05:34:56;16.10;;;7.70;;
54368;SDS011;40266;52.434;17.056;2023-10-09T05:37:42;14.00;;;6.90;;
54368;SDS011;40266;52.434;17.056;2023-10-09T05:40:26;16.60;;;8.00;;
54368;SDS011;40266;52.434;17.056;2023-10-09T05:43:13;16.00;;;7.50;;
54368;SDS011;40266;52.434;17.056;2023-10-09T05:48:06;14.10;;;7.20;;
54368;SDS011;40266;52.434;17.056;2023-10-09T05:51:09;13.60;;;6.70;;
54368;SDS011;40266;52.434;17.056;2023-10-09T05:53:55;17.00;;;7.40;;
54368;SDS011;40266;52.434;17.056;2023-10-09T05:56:58;15.90;;;6.50;;
54368;SDS011;40266;52.434;17.056;2023-10-09T06:00:04;14.00;;;6.80;;
54368;SDS011;40266;52.434;17.056;2023-10-09T06:03:07;14.30;;;6.90;;
54368;SDS011;40266;52.434;17.056;2023-10-09T06:06:07;13.40;;;6.60;;
54368;SDS011;40266;52.434;17.056;2023-10-09T06:08:50;14.90;;;6.40;;
54368;SDS011;40266;52.434;17.056;2023-10-09T06:11:54;10.90;;;5.90;;
54368;SDS011;40266;52.434;17.056;2023-10-09T06:14:37;15.00;;;6.50;;
54368;SDS011;40266;52.434;17.056;2023-10-09T06:17:20;13.30;;;6.40;;
54368;SDS011;40266;52.434;17.056;2023-10-09T06:20:06;11.00;;;5.90;;
54368;SDS011;40266;52.434;17.056;2023-10-09T06:23:09;13.10;;;6.30;;
54368;SDS011;40266;52.434;17.056;2023-10-09T06:26:00;10.30;;;5.20;;
54368;SDS011;40266;52.434;17.056;2023-10-09T06:29:03;12.90;;;6.70;;
54368;SDS011;40266;52.434;17.056;2023-10-09T06:31:59;13.10;;;6.00;;
54368;SDS011;40266;52.434;17.056;2023-10-09T06:35:03;15.30;;;6.70;;
54368;SDS011;40266;52.434;17.056;2023-10-09T06:37:59;11.60;;;6.10;;
54368;SDS011;40266;52.434;17.056;2023-10-09T06:40:47;11.40;;;5.80;;
54368;SDS011;40266;52.434;17.056;2023-10-09T06:43:48;12.50;;;6.10;;
54368;SDS011;40266;52.434;17.056;2023-10-09T06:46:36;13.60;;;6.60;;
54368;SDS011;40266;52.434;17.056;2023-10-09T06:49:27;13.90;;;6.40;;
54368;SDS011;40266;52.434;17.056;2023-10-09T06:52:19;12.90;;;5.80;;
54368;SDS011;40266;52.434;17.056;2023-10-09T06:55:22;13.10;;;6.20;;
54368;SDS011;40266;52.434;17.056;2023-10-09T06:58:15;11.60;;;6.10;;
54368;SDS011;40266;52.434;17.056;2023-10-09T07:01:06;11.50;;;5.60;;
54368;SDS011;40266;52.434;17.056;2023-10-09T07:04:08;11.00;;;5.70;;
54368;SDS011;40266;52.434;17.056;2023-10-09T07:07:10;13.30;;;7.00;;
54368;SDS011;40266;52.434;17.056;2023-10-09T07:09:59;16.20;;;7.20;;
54368;SDS011;40266;52.434;17.056;2023-10-09T07:13:01;14.70;;;7.10;;
54368;SDS011;40266;52.434;17.056;2023-10-09T07:15:46;14.30;;;6.70;;
54368;SDS011;40266;52.434;17.056;2023-10-09T07:18:48;16.90;;;6.50;;
54368;SDS011;40266;52.434;17.056;2023-10-09T07:21:37;14.30;;;6.20;;
54368;SDS011;40266;52.434;17.056;2023-10-09T07:24:21;17.00;;;7.40;;
54368;SDS011;40266;52.434;17.056;2023-10-09T07:27:20;14.40;;;7.10;;
54368;SDS011;40266;52.434;17.056;2023-10-09T07:30:23;18.20;;;7.10;;
54368;SDS011;40266;52.434;17.056;2023-10-09T07:33:13;13.00;;;6.60;;
54368;SDS011;40266;52.434;17.056;2023-10-09T08:00:12;19.50;;;9.00;;
54368;SDS011;40266;52.434;17.056;2023-10-09T08:03:16;16.00;;;8.20;;
54368;SDS011;40266;52.434;17.056;2023-10-09T08:06:07;16.60;;;8.50;;
54368;SDS011;40266;52.434;17.056;2023-10-09T08:09:12;15.00;;;8.70;;
54368;SDS011;40266;52.434;17.056;2023-10-09T08:14:57;16.00;;;7.10;;
54368;SDS011;40266;52.434;17.056;2023-10-09T08:18:16;17.00;;;8.10;;
54368;SDS011;40266;52.434;17.056;2023-10-09T08:21:11;18.40;;;9.40;;
54368;SDS011;40266;52.434;17.056;2023-10-09T08:23:54;14.90;;;8.20;;
54368;SDS011;40266;52.434;17.056;2023-10-09T08:26:38;18.70;;;8.80;;
54368;SDS011;40266;52.434;17.056;2023-10-09T08:29:30;18.40;;;11.30;;
54368;SDS011;40266;52.434;17.056;2023-10-09T08:32:17;14.90;;;8.20;;
54368;SDS011;40266;52.434;17.056;2023-10-09T08:35:24;29.80;;;24.40;;
54368;SDS011;40266;52.434;17.056;2023-10-09T08:38:14;18.70;;;9.50;;
54368;SDS011;40266;52.434;17.056;2023-10-09T08:41:09;15.60;;;8.30;;
54368;SDS011;40266;52.434;17.056;2023-10-09T08:44:00;14.40;;;6.60;;
54368;SDS011;40266;52.434;17.056;2023-10-09T08:46:46;13.30;;;6.50;;
54368;SDS011;40266;52.434;17.056;2023-10-09T08:49:29;11.80;;;6.10;;
54368;SDS011;40266;52.434;17.056;2023-10-09T09:21:48;8.80;;;4.80;;
54368;SDS011;40266;52.434;17.056;2023-10-09T09:24:37;10.90;;;4.40;;
54368;SDS011;40266;52.434;17.056;2023-10-09T09:27:21;7.90;;;4.70;;
54368;SDS011;40266;52.434;17.056;2023-10-09T09:30:23;7.80;;;4.80;;
54368;SDS011;40266;52.434;17.056;2023-10-09T09:33:22;9.70;;;4.20;;
54368;SDS011;40266;52.434;17.056;2023-10-09T09:52:56;7.90;;;2.90;;
54368;SDS011;40266;52.434;17.056;2023-10-09T09:55:39;6.80;;;2.80;;
54368;SDS011;40266;52.434;17.056;2023-10-09T09:58:35;5.00;;;2.70;;
54368;SDS011;40266;52.434;17.056;2023-10-09T10:01:28;6.60;;;3.20;;
54368;SDS011;40266;52.434;17.056;2023-10-09T10:04:15;7.50;;;3.50;;
54368;SDS011;40266;52.434;17.056;2023-10-09T17:49:04;38.40;;;21.70;;
54368;SDS011;40266;52.434;17.056;2023-10-09T17:51:49;41.40;;;24.70;;
54368;SDS011;40266;52.434;17.056;2023-10-09T17:54:34;39.50;;;22.10;;
54368;SDS011;40266;52.434;17.056;2023-10-09T17:57:17;39.30;;;23.80;;
54368;SDS011;40266;52.434;17.056;2023-10-09T18:00:02;39.90;;;23.60;;
54368;SDS011;40266;52.434;17.056;2023-10-09T18:02:48;38.40;;;22.50;;
54368;SDS011;40266;52.434;17.056;2023-10-09T18:05:32;40.50;;;24.20;;
54368;SDS011;40266;52.434;17.056;2023-10-09T18:08:15;44.80;;;22.80;;
54368;SDS011;40266;52.434;17.056;2023-10-09T18:10:59;39.20;;;21.30;;
54368;SDS011;40266;52.434;17.056;2023-10-09T18:13:43;38.80;;;23.40;;
54368;SDS011;40266;52.434;17.056;2023-10-09T18:16:26;36.20;;;22.30;;
54368;SDS011;40266;52.434;17.056;2023-10-09T18:19:09;38.60;;;21.70;;
54368;SDS011;40266;52.434;17.056;2023-10-09T18:21:54;42.30;;;23.60;;
54368;SDS011;40266;52.434;17.056;2023-10-09T18:24:37;40.60;;;24.30;;
54368;SDS011;40266;52.434;17.056;2023-10-09T18:27:23;38.50;;;22.20;;
54368;SDS011;40266;52.434;17.056;2023-10-09T18:30:06;39.10;;;23.00;;
54368;SDS011;40266;52.434;17.056;2023-10-09T18:32:50;36.40;;;20.80;;
54368;SDS011;40266;52.434;17.056;2023-10-09T18:35:33;36.30;;;21.50;;
54368;SDS011;40266;52.434;17.056;2023-10-09T18:38:16;33.90;;;20.70;;
54368;SDS011;40266;52.434;17.056;2023-10-09T18:41:00;33.60;;;20.00;;
54368;SDS011;40266;52.434;17.056;2023-10-09T18:43:48;39.30;;;23.80;;
54368;SDS011;40266;52.434;17.056;2023-10-09T18:46:32;39.50;;;22.60;;
54368;SDS011;40266;52.434;17.056;2023-10-09T18:49:15;37.30;;;22.90;;
54368;SDS011;40266;52.434;17.056;2023-10-09T18:51:58;37.60;;;23.00;;
54368;SDS011;40266;52.434;17.056;2023-10-09T18:54:42;36.30;;;22.50;;
54368;SDS011;40266;52.434;17.056;2023-10-09T18:57:25;41.20;;;22.30;;
54368;SDS011;40266;52.434;17.056;2023-10-09T19:00:09;37.20;;;22.20;;
54368;SDS011;40266;52.434;17.056;2023-10-09T19:02:54;35.40;;;20.90;;
54368;SDS011;40266;52.434;17.056;2023-10-09T19:05:41;38.50;;;22.50;;
54368;SDS011;40266;52.434;17.056;2023-10-09T19:08:27;37.50;;;23.20;;
54368;SDS011;40266;52.434;17.056;2023-10-09T19:11:15;34.70;;;22.60;;
54368;SDS011;40266;52.434;17.056;2023-10-09T19:13:59;38.80;;;22.40;;
54368;SDS011;40266;52.434;17.056;2023-10-09T19:16:43;42.80;;;22.20;;
54368;SDS011;40266;52.434;17.056;2023-10-09T19:19:29;36.50;;;22.90;;
54368;SDS011;40266;52.434;17.056;2023-10-09T19:22:12;35.20;;;21.00;;
54368;SDS011;40266;52.434;17.056;2023-10-09T19:24:58;38.20;;;23.40;;
54368;SDS011;40266;52.434;17.056;2023-10-09T19:27:42;33.80;;;21.20;;
54368;SDS011;40266;52.434;17.056;2023-10-09T19:30:31;38.80;;;23.10;;
54368;SDS011;40266;52.434;17.056;2023-10-09T19:33:14;39.70;;;24.50;;
54368;SDS011;40266;52.434;17.056;2023-10-09T19:36:07;41.10;;;25.40;;
54368;SDS011;40266;52.434;17.056;2023-10-09T19:38:54;55.10;;;34.20;;
54368;SDS011;40266;52.434;17.056;2023-10-09T19:41:38;56.50;;;34.20;;
54368;SDS011;40266;52.434;17.056;2023-10-09T19:44:21;57.70;;;35.70;;
54368;SDS011;40266;52.434;17.056;2023-10-09T19:47:04;43.30;;;26.90;;
54368;SDS011;40266;52.434;17.056;2023-10-09T19:49:48;46.30;;;28.30;;
54368;SDS011;40266;52.434;17.056;2023-10-09T19:52:32;43.70;;;27.60;;
54368;SDS011;40266;52.434;17.056;2023-10-09T19:55:16;44.30;;;28.10;;
54368;SDS011;40266;52.434;17.056;2023-10-09T19:58:04;47.00;;;29.60;;
54368;SDS011;40266;52.434;17.056;2023-10-09T20:00:47;53.00;;;32.20;;
54368;SDS011;40266;52.434;17.056;2023-10-09T20:03:30;48.40;;;30.30;;
54368;SDS011;40266;52.434;17.056;2023-10-09T20:06:19;52.10;;;31.90;;
54368;SDS011;40266;52.434;17.056;2023-10-09T20:09:02;52.20;;;32.30;;
54368;SDS011;40266;52.434;17.056;2023-10-09T20:11:50;54.00;;;34.30;;
54368;SDS011;40266;52.434;17.056;2023-10-09T20:14:33;45.70;;;30.30;;
54368;SDS011;40266;52.434;17.056;2023-10-09T20:17:16;47.80;;;28.90;;
54368;SDS011;40266;52.434;17.056;2023-10-09T20:19:59;45.00;;;29.20;;
54368;SDS011;40266;52.434;17.056;2023-10-09T20:22:42;49.50;;;28.40;;
54368;SDS011;40266;52.434;17.056;2023-10-09T20:25:25;46.10;;;28.30;;
54368;SDS011;40266;52.434;17.056;2023-10-09T20:28:10;40.70;;;25.50;;
54368;SDS011;40266;52.434;17.056;2023-10-09T20:30:53;54.90;;;27.70;;
54368;SDS011;40266;52.434;17.056;2023-10-09T20:33:37;44.90;;;27.10;;
54368;SDS011;40266;52.434;17.056;2023-10-09T20:36:20;52.50;;;29.40;;
54368;SDS011;40266;52.434;17.056;2023-10-09T20:39:11;50.60;;;31.80;;
54368;SDS011;40266;52.434;17.056;2023-10-09T20:41:55;45.50;;;28.50;;
54368;SDS011;40266;52.434;17.056;2023-10-09T20:44:38;56.80;;;31.00;;
54368;SDS011;40266;52.434;17.056;2023-10-09T20:47:21;56.60;;;32.20;;
54368;SDS011;40266;52.434;17.056;2023-10-09T20:50:07;53.90;;;33.80;;
54368;SDS011;40266;52.434;17.056;2023-10-09T20:52:51;68.60;;;36.90;;
54368;SDS011;40266;52.434;17.056;2023-10-09T20:55:35;58.00;;;36.40;;
54368;SDS011;40266;52.434;17.056;2023-10-09T20:58:19;59.50;;;36.10;;
54368;SDS011;40266;52.434;17.056;2023-10-09T21:01:06;61.60;;;36.30;;
54368;SDS011;40266;52.434;17.056;2023-10-09T21:03:58;59.70;;;35.70;;
54368;SDS011;40266;52.434;17.056;2023-10-09T21:06:41;66.30;;;38.00;;
54368;SDS011;40266;52.434;17.056;2023-10-09T21:09:24;63.70;;;38.20;;
54368;SDS011;40266;52.434;17.056;2023-10-09T21:12:07;65.70;;;39.40;;
54368;SDS011;40266;52.434;17.056;2023-10-09T21:14:49;67.80;;;39.60;;
54368;SDS011;40266;52.434;17.056;2023-10-09T21:17:32;69.40;;;37.80;;
54368;SDS011;40266;52.434;17.056;2023-10-09T21:20:16;63.60;;;39.50;;
54368;SDS011;40266;52.434;17.056;2023-10-09T21:22:59;66.60;;;38.80;;
54368;SDS011;40266;52.434;17.056;2023-10-09T21:25:44;68.20;;;40.40;;
54368;SDS011;40266;52.434;17.056;2023-10-09T21:28:26;73.00;;;40.50;;
54368;SDS011;40266;52.434;17.056;2023-10-09T21:31:10;71.30;;;40.60;;
54368;SDS011;40266;52.434;17.056;2023-10-09T21:33:55;67.60;;;39.70;;
54368;SDS011;40266;52.434;17.056;2023-10-09T21:36:39;69.10;;;39.30;;
54368;SDS011;40266;52.434;17.056;2023-10-09T21:39:23;74.70;;;40.10;;
54368;SDS011;40266;52.434;17.056;2023-10-09T21:42:06;66.30;;;38.20;;
54368;SDS011;40266;52.434;17.056;2023-10-09T21:44:50;63.30;;;37.90;;
54368;SDS011;40266;52.434;17.056;2023-10-09T21:47:34;67.40;;;37.90;;
54368;SDS011;40266;52.434;17.056;2023-10-09T21:50:17;61.80;;;36.30;;
54368;SDS011;40266;52.434;17.056;2023-10-09T21:53:01;75.50;;;42.00;;
54368;SDS011;40266;52.434;17.056;2023-10-09T21:55:45;77.20;;;40.70;;
54368;SDS011;40266;52.434;17.056;2023-10-09T21:58:28;82.60;;;47.50;;
54368;SDS011;40266;52.434;17.056;2023-10-09T22:01:11;86.30;;;46.80;;
54368;SDS011;40266;52.434;17.056;2023-10-09T22:03:55;86.70;;;47.00;;
54368;SDS011;40266;52.434;17.056;2023-10-09T22:06:40;92.80;;;49.40;;
54368;SDS011;40266;52.434;17.056;2023-10-09T22:09:23;86.50;;;45.50;;
54368;SDS011;40266;52.434;17.056;2023-10-09T22:12:06;88.50;;;48.20;;
54368;SDS011;40266;52.434;17.056;2023-10-09T22:14:48;96.90;;;52.90;;
54368;SDS011;40266;52.434;17.056;2023-10-09T22:17:33;98.30;;;53.10;;
54368;SDS011;40266;52.434;17.056;2023-10-09T22:20:16;91.10;;;51.60;;
54368;SDS011;40266;52.434;17.056;2023-10-09T22:23:03;99.20;;;51.50;;
54368;SDS011;40266;52.434;17.056;2023-10-09T22:25:53;93.20;;;53.20;;
54368;SDS011;40266;52.434;17.056;2023-10-09T22:28:43;91.60;;;49.10;;
54368;SDS011;40266;52.434;17.056;2023-10-09T22:31:29;98.00;;;51.00;;
54368;SDS011;40266;52.434;17.056;2023-10-09T22:34:13;102.80;;;51.50;;
54368;SDS011;40266;52.434;17.056;2023-10-09T22:36:57;94.60;;;49.10;;
54368;SDS011;40266;52.434;17.056;2023-10-09T22:39:45;104.70;;;54.90;;
54368;SDS011;40266;52.434;17.056;2023-10-09T22:42:29;102.10;;;54.30;;
54368;SDS011;40266;52.434;17.056;2023-10-09T22:45:11;95.10;;;50.90;;
54368;SDS011;40266;52.434;17.056;2023-10-09T22:47:57;91.20;;;47.20;;
54368;SDS011;40266;52.434;17.056;2023-10-09T22:50:41;97.10;;;51.60;;
54368;SDS011;40266;52.434;17.056;2023-10-09T22:53:28;91.60;;;49.40;;
54368;SDS011;40266;52.434;17.056;2023-10-09T22:56:20;89.50;;;50.20;;
54368;SDS011;40266;52.434;17.056;2023-10-09T22:59:03;98.30;;;48.90;;
54368;SDS011;40266;52.434;17.056;2023-10-09T23:02:03;83.00;;;48.30;;
54368;SDS011;40266;52.434;17.056;2023-10-09T23:04:48;87.40;;;47.90;;
54368;SDS011;40266;52.434;17.056;2023-10-09T23:07:32;87.90;;;48.10;;
54368;SDS011;40266;52.434;17.056;2023-10-09T23:10:15;94.70;;;47.60;;
54368;SDS011;40266;52.434;17.056;2023-10-09T23:12:58;90.00;;;49.90;;
54368;SDS011;40266;52.434;17.056;2023-10-09T23:15:57;102.80;;;51.70;;
54368;SDS011;40266;52.434;17.056;2023-10-09T23:18:50;91.90;;;49.00;;
54368;SDS011;40266;52.434;17.056;2023-10-09T23:21:51;85.00;;;47.50;;
54368;SDS011;40266;52.434;17.056;2023-10-09T23:24:53;90.30;;;47.30;;
54368;SDS011;40266;52.434;17.056;2023-10-09T23:27:37;84.10;;;48.80;;
54368;SDS011;40266;52.434;17.056;2023-10-09T23:30:40;82.80;;;43.80;;
54368;SDS011;40266;52.434;17.056;2023-10-09T23:33:26;78.20;;;43.20;;
54368;SDS011;40266;52.434;17.056;2023-10-09T23:36:12;81.30;;;43.50;;
54368;SDS011;40266;52.434;17.056;2023-10-09T23:41:57;78.80;;;39.90;;
54368;SDS011;40266;52.434;17.056;2023-10-09T23:44:57;76.70;;;38.90;;
54368;SDS011;40266;52.434;17.056;2023-10-09T23:47:47;78.70;;;39.20;;
54368;SDS011;40266;52.434;17.056;2023-10-09T23:50:31;67.10;;;37.40;;
54368;SDS011;40266;52.434;17.056;2023-10-09T23:53:15;67.60;;;38.60;;
54368;SDS011;40266;52.434;17.056;2023-10-09T23:55:58;68.30;;;37.20;;
54368;SDS011;40266;52.434;17.056;2023-10-09T23:58:52;66.50;;;37.40;;
